Terminal Aerodrome Forecast
Issued by NWS

Current Version | Previous Version | Text Only | Print | Product List | Glossary On
Versions: 1 2 3 4 5 6 7 8 9 10 11 12 13 14 15 16 17 18 19 20 21 22 23 24 25 26 27 28 29 30 31 32
000
FTUS45 KBOI 101835 AAA
TAFBKE
TAF AMD
KBKE 101835Z 1019/1118 VRB03KT 6SM BR SCT010 OVC025
     FM102200 VRB05KT P6SM OVC050
     FM110600 VRB03KT 3/4SM BR OVC005=

USA.gov is the U.S. government's official web portal to all federal, state and local government web resources and services.